sensor_id;sensor_type;location;lat;lon;timestamp;pressure;altitude;pressure_sealevel;temperature;humidity
55466;BME280;41329;41.594;23.810;2022-11-15T00:00:13;95857.91;;;7.75;60.29
55466;BME280;41329;41.594;23.810;2022-11-15T00:02:39;95848.72;;;7.71;59.94
55466;BME280;41329;41.594;23.810;2022-11-15T00:05:04;95854.56;;;7.70;60.37
55466;BME280;41329;41.594;23.810;2022-11-15T00:07:29;95851.69;;;7.66;60.24
55466;BME280;41329;41.594;23.810;2022-11-15T00:09:55;95847.66;;;7.64;60.45
55466;BME280;41329;41.594;23.810;2022-11-15T00:12:20;95852.38;;;7.63;60.59
55466;BME280;41329;41.594;23.810;2022-11-15T00:14:45;95859.00;;;7.62;61.35
55466;BME280;41329;41.594;23.810;2022-11-15T00:17:10;95853.97;;;7.64;61.51
55466;BME280;41329;41.594;23.810;2022-11-15T00:19:36;95850.75;;;7.62;61.28
55466;BME280;41329;41.594;23.810;2022-11-15T00:22:01;95850.28;;;7.60;60.90
55466;BME280;41329;41.594;23.810;2022-11-15T00:24:26;95844.19;;;7.55;61.21
55466;BME280;41329;41.594;23.810;2022-11-15T00:26:52;95850.38;;;7.52;61.45
55466;BME280;41329;41.594;23.810;2022-11-15T00:29:17;95849.09;;;7.49;61.30
55466;BME280;41329;41.594;23.810;2022-11-15T00:31:42;95850.34;;;7.40;60.74
55466;BME280;41329;41.594;23.810;2022-11-15T00:34:08;95848.34;;;7.28;60.59
55466;BME280;41329;41.594;23.810;2022-11-15T00:36:34;95843.38;;;7.22;60.66
55466;BME280;41329;41.594;23.810;2022-11-15T00:38:59;95838.59;;;7.19;60.56
55466;BME280;41329;41.594;23.810;2022-11-15T00:41:25;95835.69;;;7.15;60.83
55466;BME280;41329;41.594;23.810;2022-11-15T00:43:50;95843.81;;;7.12;60.83
55466;BME280;41329;41.594;23.810;2022-11-15T00:46:15;95836.22;;;7.09;60.64
55466;BME280;41329;41.594;23.810;2022-11-15T00:48:41;95841.13;;;7.03;60.98
55466;BME280;41329;41.594;23.810;2022-11-15T00:51:06;95839.41;;;6.99;61.17
55466;BME280;41329;41.594;23.810;2022-11-15T00:53:31;95843.63;;;6.96;61.11
55466;BME280;41329;41.594;23.810;2022-11-15T00:55:56;95842.69;;;6.92;61.13
55466;BME280;41329;41.594;23.810;2022-11-15T00:58:22;95831.91;;;6.87;61.14
55466;BME280;41329;41.594;23.810;2022-11-15T01:00:47;95832.44;;;6.81;61.45
55466;BME280;41329;41.594;23.810;2022-11-15T01:03:12;95828.25;;;6.75;60.79
55466;BME280;41329;41.594;23.810;2022-11-15T01:05:38;95828.13;;;6.71;61.32
55466;BME280;41329;41.594;23.810;2022-11-15T01:08:03;95833.16;;;6.69;61.43
55466;BME280;41329;41.594;23.810;2022-11-15T01:10:28;95828.34;;;6.66;61.50
55466;BME280;41329;41.594;23.810;2022-11-15T01:12:54;95816.53;;;6.66;61.59
55466;BME280;41329;41.594;23.810;2022-11-15T01:15:19;95818.47;;;6.65;62.07
55466;BME280;41329;41.594;23.810;2022-11-15T01:17:44;95819.28;;;6.66;62.34
55466;BME280;41329;41.594;23.810;2022-11-15T01:20:10;95830.31;;;6.57;63.07
55466;BME280;41329;41.594;23.810;2022-11-15T01:22:35;95830.19;;;6.53;63.45
55466;BME280;41329;41.594;23.810;2022-11-15T01:25:01;95825.66;;;6.57;63.34
55466;BME280;41329;41.594;23.810;2022-11-15T01:27:26;95820.47;;;6.56;62.68
55466;BME280;41329;41.594;23.810;2022-11-15T01:29:51;95824.38;;;6.55;62.34
55466;BME280;41329;41.594;23.810;2022-11-15T01:32:16;95823.09;;;6.53;62.40
55466;BME280;41329;41.594;23.810;2022-11-15T01:34:42;95824.56;;;6.50;62.64
55466;BME280;41329;41.594;23.810;2022-11-15T01:37:07;95817.81;;;6.47;62.92
55466;BME280;41329;41.594;23.810;2022-11-15T01:39:32;95815.72;;;6.44;62.23
55466;BME280;41329;41.594;23.810;2022-11-15T01:41:58;95817.19;;;6.42;62.02
55466;BME280;41329;41.594;23.810;2022-11-15T01:44:44;95824.16;;;6.39;62.36
55466;BME280;41329;41.594;23.810;2022-11-15T01:50:04;95815.69;;;6.24;62.31
55466;BME280;41329;41.594;23.810;2022-11-15T01:52:31;95817.34;;;6.16;62.28
55466;BME280;41329;41.594;23.810;2022-11-15T01:55:06;95809.28;;;6.11;62.83
55466;BME280;41329;41.594;23.810;2022-11-15T01:57:33;95817.72;;;6.06;62.39
55466;BME280;41329;41.594;23.810;2022-11-15T01:59:59;95812.75;;;6.00;62.57
55466;BME280;41329;41.594;23.810;2022-11-15T02:02:25;95812.13;;;5.94;62.77
55466;BME280;41329;41.594;23.810;2022-11-15T02:04:50;95817.81;;;5.89;63.00
55466;BME280;41329;41.594;23.810;2022-11-15T02:07:16;95808.63;;;5.77;63.27
55466;BME280;41329;41.594;23.810;2022-11-15T02:09:42;95814.94;;;5.77;63.11
55466;BME280;41329;41.594;23.810;2022-11-15T02:12:08;95823.16;;;5.77;63.35
55466;BME280;41329;41.594;23.810;2022-11-15T02:14:34;95817.22;;;5.75;63.12
55466;BME280;41329;41.594;23.810;2022-11-15T02:17:17;95818.81;;;5.76;63.48
55466;BME280;41329;41.594;23.810;2022-11-15T02:24:53;95816.38;;;5.83;63.75
55466;BME280;41329;41.594;23.810;2022-11-15T02:27:34;95814.13;;;5.85;63.46
55466;BME280;41329;41.594;23.810;2022-11-15T02:35:00;95816.34;;;5.92;64.32
55466;BME280;41329;41.594;23.810;2022-11-15T02:37:33;95810.53;;;5.93;64.42
55466;BME280;41329;41.594;23.810;2022-11-15T02:40:08;95806.97;;;5.93;63.51
55466;BME280;41329;41.594;23.810;2022-11-15T02:42:37;95814.56;;;5.87;63.17
55466;BME280;41329;41.594;23.810;2022-11-15T02:45:27;95816.06;;;5.76;63.61
55466;BME280;41329;41.594;23.810;2022-11-15T02:47:54;95822.41;;;5.68;63.09
55466;BME280;41329;41.594;23.810;2022-11-15T02:50:22;95824.38;;;5.51;63.14
55466;BME280;41329;41.594;23.810;2022-11-15T02:52:50;95819.59;;;5.31;63.85
55466;BME280;41329;41.594;23.810;2022-11-15T02:55:29;95819.13;;;5.29;64.27
55466;BME280;41329;41.594;23.810;2022-11-15T03:00:31;95816.25;;;5.25;64.92
55466;BME280;41329;41.594;23.810;2022-11-15T03:08:34;95821.59;;;5.13;64.97
55466;BME280;41329;41.594;23.810;2022-11-15T03:13:19;95819.66;;;5.05;65.28
55466;BME280;41329;41.594;23.810;2022-11-15T03:16:06;95810.16;;;5.03;65.55
55466;BME280;41329;41.594;23.810;2022-11-15T03:18:35;95811.63;;;5.00;65.37
55466;BME280;41329;41.594;23.810;2022-11-15T03:21:02;95810.34;;;4.98;65.31
55466;BME280;41329;41.594;23.810;2022-11-15T03:23:29;95803.22;;;4.97;65.26
55466;BME280;41329;41.594;23.810;2022-11-15T03:25:56;95810.16;;;4.94;65.31
55466;BME280;41329;41.594;23.810;2022-11-15T03:28:23;95806.94;;;4.92;65.05
55466;BME280;41329;41.594;23.810;2022-11-15T03:30:50;95799.22;;;4.86;64.80
55466;BME280;41329;41.594;23.810;2022-11-15T03:33:17;95806.78;;;4.80;63.96
55466;BME280;41329;41.594;23.810;2022-11-15T03:35:44;95801.31;;;4.72;64.45
55466;BME280;41329;41.594;23.810;2022-11-15T03:43:20;95799.88;;;4.66;65.14
55466;BME280;41329;41.594;23.810;2022-11-15T03:45:51;95795.19;;;4.66;65.62
55466;BME280;41329;41.594;23.810;2022-11-15T03:48:26;95798.09;;;4.70;65.27
55466;BME280;41329;41.594;23.810;2022-11-15T03:50:53;95790.19;;;4.68;65.50
55466;BME280;41329;41.594;23.810;2022-11-15T03:53:18;95790.66;;;4.70;65.76
55466;BME280;41329;41.594;23.810;2022-11-15T03:55:44;95793.25;;;4.75;65.90
55466;BME280;41329;41.594;23.810;2022-11-15T03:58:09;95781.97;;;4.77;65.99
55466;BME280;41329;41.594;23.810;2022-11-15T04:00:34;95783.91;;;4.76;65.60
55466;BME280;41329;41.594;23.810;2022-11-15T04:02:59;95780.84;;;4.78;64.74
55466;BME280;41329;41.594;23.810;2022-11-15T04:05:25;95782.28;;;4.75;64.49
55466;BME280;41329;41.594;23.810;2022-11-15T04:07:50;95781.00;;;4.73;64.58
55466;BME280;41329;41.594;23.810;2022-11-15T04:10:15;95783.88;;;4.68;64.79
55466;BME280;41329;41.594;23.810;2022-11-15T04:12:42;95780.34;;;4.59;64.75
55466;BME280;41329;41.594;23.810;2022-11-15T04:15:12;95783.75;;;4.56;64.83
55466;BME280;41329;41.594;23.810;2022-11-15T04:17:39;95777.13;;;4.48;65.63
55466;BME280;41329;41.594;23.810;2022-11-15T04:20:05;95777.94;;;4.49;66.66
55466;BME280;41329;41.594;23.810;2022-11-15T04:22:51;95774.06;;;4.50;67.14
55466;BME280;41329;41.594;23.810;2022-11-15T04:25:35;95775.22;;;4.49;67.29
55466;BME280;41329;41.594;23.810;2022-11-15T04:28:00;95772.94;;;4.42;67.51
55466;BME280;41329;41.594;23.810;2022-11-15T04:30:26;95773.25;;;4.49;67.63
55466;BME280;41329;41.594;23.810;2022-11-15T04:32:51;95775.03;;;4.54;67.67
55466;BME280;41329;41.594;23.810;2022-11-15T04:35:16;95782.31;;;4.58;67.39
55466;BME280;41329;41.594;23.810;2022-11-15T04:37:42;95776.97;;;4.62;67.58
55466;BME280;41329;41.594;23.810;2022-11-15T04:40:07;95771.63;;;4.65;67.61
55466;BME280;41329;41.594;23.810;2022-11-15T04:42:32;95760.50;;;4.70;67.44
55466;BME280;41329;41.594;23.810;2022-11-15T04:44:58;95765.03;;;4.75;67.35
55466;BME280;41329;41.594;23.810;2022-11-15T04:47:23;95759.41;;;4.71;67.37
55466;BME280;41329;41.594;23.810;2022-11-15T04:49:48;95763.09;;;4.67;67.27
55466;BME280;41329;41.594;23.810;2022-11-15T04:52:13;95764.25;;;4.66;67.05
55466;BME280;41329;41.594;23.810;2022-11-15T04:54:39;95767.94;;;4.53;67.20
55466;BME280;41329;41.594;23.810;2022-11-15T04:57:04;95774.72;;;4.38;67.23
55466;BME280;41329;41.594;23.810;2022-11-15T04:59:29;95766.66;;;4.33;67.47
55466;BME280;41329;41.594;23.810;2022-11-15T05:01:55;95760.88;;;4.35;67.27
55466;BME280;41329;41.594;23.810;2022-11-15T05:04:20;95761.66;;;4.35;67.30
55466;BME280;41329;41.594;23.810;2022-11-15T05:06:46;95756.69;;;4.37;67.73
55466;BME280;41329;41.594;23.810;2022-11-15T05:09:11;95764.22;;;4.40;67.78
55466;BME280;41329;41.594;23.810;2022-11-15T05:11:38;95761.19;;;4.42;67.73
55466;BME280;41329;41.594;23.810;2022-11-15T05:14:03;95761.69;;;4.44;68.08
55466;BME280;41329;41.594;23.810;2022-11-15T05:16:28;95762.16;;;4.46;68.18
55466;BME280;41329;41.594;23.810;2022-11-15T05:18:54;95763.44;;;4.40;68.33
55466;BME280;41329;41.594;23.810;2022-11-15T05:21:20;95761.97;;;4.34;68.13
55466;BME280;41329;41.594;23.810;2022-11-15T05:23:45;95765.69;;;4.29;68.31
55466;BME280;41329;41.594;23.810;2022-11-15T05:26:11;95763.75;;;4.30;68.42
55466;BME280;41329;41.594;23.810;2022-11-15T05:28:36;95762.97;;;4.29;68.72
55466;BME280;41329;41.594;23.810;2022-11-15T05:31:06;95767.31;;;4.30;69.02
55466;BME280;41329;41.594;23.810;2022-11-15T05:33:32;95764.56;;;4.30;69.47
55466;BME280;41329;41.594;23.810;2022-11-15T05:36:00;95773.75;;;4.34;69.44
55466;BME280;41329;41.594;23.810;2022-11-15T05:38:27;95769.25;;;4.38;69.36
55466;BME280;41329;41.594;23.810;2022-11-15T05:40:53;95781.50;;;4.41;69.35
55466;BME280;41329;41.594;23.810;2022-11-15T05:43:19;95776.97;;;4.45;69.19
55466;BME280;41329;41.594;23.810;2022-11-15T05:45:44;95773.09;;;4.46;69.11
55466;BME280;41329;41.594;23.810;2022-11-15T05:48:09;95784.06;;;4.46;69.28
55466;BME280;41329;41.594;23.810;2022-11-15T05:50:38;95782.47;;;4.45;69.12
55466;BME280;41329;41.594;23.810;2022-11-15T05:53:06;95780.53;;;4.45;69.06
55466;BME280;41329;41.594;23.810;2022-11-15T05:55:34;95784.88;;;4.46;69.13
55466;BME280;41329;41.594;23.810;2022-11-15T05:58:00;95786.97;;;4.49;69.03
55466;BME280;41329;41.594;23.810;2022-11-15T06:00:25;95789.22;;;4.47;69.02
55466;BME280;41329;41.594;23.810;2022-11-15T06:02:51;95790.81;;;4.23;69.39
55466;BME280;41329;41.594;23.810;2022-11-15T06:05:16;95796.13;;;4.11;69.74
55466;BME280;41329;41.594;23.810;2022-11-15T06:07:41;95795.94;;;4.07;69.50
55466;BME280;41329;41.594;23.810;2022-11-15T06:10:07;95800.78;;;4.02;70.05
55466;BME280;41329;41.594;23.810;2022-11-15T06:12:32;95791.75;;;3.93;70.38
55466;BME280;41329;41.594;23.810;2022-11-15T06:14:58;95790.31;;;3.95;70.48
55466;BME280;41329;41.594;23.810;2022-11-15T06:17:23;95790.16;;;4.00;70.65
55466;BME280;41329;41.594;23.810;2022-11-15T06:19:48;95794.50;;;4.01;71.05
55466;BME280;41329;41.594;23.810;2022-11-15T06:22:14;95793.84;;;4.04;71.15
55466;BME280;41329;41.594;23.810;2022-11-15T06:24:39;95789.63;;;3.98;71.03
55466;BME280;41329;41.594;23.810;2022-11-15T06:27:04;95791.13;;;4.04;70.83
55466;BME280;41329;41.594;23.810;2022-11-15T06:29:29;95795.31;;;4.10;70.84
55466;BME280;41329;41.594;23.810;2022-11-15T06:31:55;95793.19;;;4.07;70.98
55466;BME280;41329;41.594;23.810;2022-11-15T06:34:20;95797.88;;;4.15;71.53
55466;BME280;41329;41.594;23.810;2022-11-15T06:36:45;95806.09;;;4.15;71.23
55466;BME280;41329;41.594;23.810;2022-11-15T06:39:10;95801.28;;;4.12;71.89
55466;BME280;41329;41.594;23.810;2022-11-15T06:41:36;95804.34;;;4.19;71.68
55466;BME280;41329;41.594;23.810;2022-11-15T06:44:02;95811.91;;;4.22;71.67
55466;BME280;41329;41.594;23.810;2022-11-15T06:46:27;95813.84;;;4.13;71.38
55466;BME280;41329;41.594;23.810;2022-11-15T06:48:53;95811.56;;;4.15;71.23
55466;BME280;41329;41.594;23.810;2022-11-15T06:51:18;95810.47;;;4.16;71.07
55466;BME280;41329;41.594;23.810;2022-11-15T06:53:43;95810.59;;;4.11;71.63
55466;BME280;41329;41.594;23.810;2022-11-15T06:56:09;95807.06;;;4.11;71.55
55466;BME280;41329;41.594;23.810;2022-11-15T06:58:35;95801.38;;;3.90;72.04
55466;BME280;41329;41.594;23.810;2022-11-15T07:01:01;95808.50;;;4.00;72.56
55466;BME280;41329;41.594;23.810;2022-11-15T07:03:26;95803.59;;;3.71;73.82
55466;BME280;41329;41.594;23.810;2022-11-15T07:05:55;95807.00;;;3.77;74.10
55466;BME280;41329;41.594;23.810;2022-11-15T07:08:21;95791.34;;;3.69;75.32
55466;BME280;41329;41.594;23.810;2022-11-15T07:10:47;95798.63;;;3.90;75.49
55466;BME280;41329;41.594;23.810;2022-11-15T07:13:12;95798.84;;;4.02;75.35
55466;BME280;41329;41.594;23.810;2022-11-15T07:15:37;95804.00;;;3.95;74.74
55466;BME280;41329;41.594;23.810;2022-11-15T07:18:03;95791.91;;;3.96;74.60
55466;BME280;41329;41.594;23.810;2022-11-15T07:20:28;95795.44;;;3.97;74.89
55466;BME280;41329;41.594;23.810;2022-11-15T07:23:00;95803.00;;;3.91;74.87
55466;BME280;41329;41.594;23.810;2022-11-15T07:25:26;95795.59;;;3.92;74.75
55466;BME280;41329;41.594;23.810;2022-11-15T07:27:58;95795.75;;;3.87;74.69
55466;BME280;41329;41.594;23.810;2022-11-15T07:30:23;95794.28;;;3.81;75.38
55466;BME280;41329;41.594;23.810;2022-11-15T07:32:55;95797.22;;;3.93;75.47
55466;BME280;41329;41.594;23.810;2022-11-15T07:35:21;95791.78;;;4.10;75.28
55466;BME280;41329;41.594;23.810;2022-11-15T07:37:53;95785.84;;;4.16;75.15
55466;BME280;41329;41.594;23.810;2022-11-15T07:40:19;95795.31;;;4.27;74.61
55466;BME280;41329;41.594;23.810;2022-11-15T07:42:45;95782.78;;;4.35;74.30
55466;BME280;41329;41.594;23.810;2022-11-15T07:45:20;95789.84;;;4.19;74.47
55466;BME280;41329;41.594;23.810;2022-11-15T07:47:46;95778.25;;;4.22;74.82
55466;BME280;41329;41.594;23.810;2022-11-15T07:50:12;95782.13;;;4.38;74.72
55466;BME280;41329;41.594;23.810;2022-11-15T07:52:37;95780.84;;;4.35;74.70
55466;BME280;41329;41.594;23.810;2022-11-15T07:55:02;95785.50;;;4.43;74.89
55466;BME280;41329;41.594;23.810;2022-11-15T07:57:28;95781.63;;;4.44;75.26
55466;BME280;41329;41.594;23.810;2022-11-15T07:59:54;95779.88;;;4.48;75.64
55466;BME280;41329;41.594;23.810;2022-11-15T08:02:19;95782.47;;;4.45;75.78
55466;BME280;41329;41.594;23.810;2022-11-15T08:04:44;95774.06;;;4.50;76.52
55466;BME280;41329;41.594;23.810;2022-11-15T08:07:10;95775.84;;;4.63;77.09
55466;BME280;41329;41.594;23.810;2022-11-15T08:09:35;95773.09;;;4.88;77.64
55466;BME280;41329;41.594;23.810;2022-11-15T08:12:00;95769.50;;;5.05;77.96
55466;BME280;41329;41.594;23.810;2022-11-15T08:14:26;95765.28;;;5.07;77.43
55466;BME280;41329;41.594;23.810;2022-11-15T08:16:51;95764.59;;;5.27;77.36
55466;BME280;41329;41.594;23.810;2022-11-15T08:19:17;95762.91;;;5.43;77.34
55466;BME280;41329;41.594;23.810;2022-11-15T08:21:43;95768.03;;;5.53;76.05
55466;BME280;41329;41.594;23.810;2022-11-15T08:24:09;95766.22;;;5.66;76.03
55466;BME280;41329;41.594;23.810;2022-11-15T08:26:34;95756.00;;;5.75;75.68
55466;BME280;41329;41.594;23.810;2022-11-15T08:29:00;95750.78;;;5.90;75.95
55466;BME280;41329;41.594;23.810;2022-11-15T08:31:25;95743.47;;;5.94;74.91
55466;BME280;41329;41.594;23.810;2022-11-15T08:33:50;95748.31;;;5.97;75.25
55466;BME280;41329;41.594;23.810;2022-11-15T08:36:16;95750.41;;;6.21;75.17
55466;BME280;41329;41.594;23.810;2022-11-15T08:38:42;95744.88;;;6.50;75.76
55466;BME280;41329;41.594;23.810;2022-11-15T08:41:09;95747.13;;;6.48;76.02
55466;BME280;41329;41.594;23.810;2022-11-15T08:43:36;95742.66;;;6.43;75.18
55466;BME280;41329;41.594;23.810;2022-11-15T08:46:01;95741.97;;;6.67;75.28
55466;BME280;41329;41.594;23.810;2022-11-15T08:48:26;95741.84;;;6.96;75.25
55466;BME280;41329;41.594;23.810;2022-11-15T08:50:55;95735.09;;;6.94;73.29
55466;BME280;41329;41.594;23.810;2022-11-15T08:53:20;95737.84;;;7.06;72.95
55466;BME280;41329;41.594;23.810;2022-11-15T08:55:46;95737.19;;;7.09;72.71
55466;BME280;41329;41.594;23.810;2022-11-15T08:58:11;95735.66;;;7.32;73.77
55466;BME280;41329;41.594;23.810;2022-11-15T09:00:36;95724.78;;;7.47;73.56
55466;BME280;41329;41.594;23.810;2022-11-15T09:03:05;95726.06;;;7.74;74.21
55466;BME280;41329;41.594;23.810;2022-11-15T09:05:31;95721.31;;;7.86;72.80
55466;BME280;41329;41.594;23.810;2022-11-15T09:07:56;95721.22;;;7.95;71.72
55466;BME280;41329;41.594;23.810;2022-11-15T09:10:22;95712.25;;;8.22;72.11
55466;BME280;41329;41.594;23.810;2022-11-15T09:12:47;95709.66;;;8.53;71.41
55466;BME280;41329;41.594;23.810;2022-11-15T09:15:14;95705.56;;;8.74;71.46
55466;BME280;41329;41.594;23.810;2022-11-15T09:17:39;95696.63;;;8.93;69.49
55466;BME280;41329;41.594;23.810;2022-11-15T09:20:05;95694.28;;;9.22;70.57
55466;BME280;41329;41.594;23.810;2022-11-15T09:22:30;95693.75;;;9.48;70.38
55466;BME280;41329;41.594;23.810;2022-11-15T09:24:55;95690.00;;;9.71;68.86
55466;BME280;41329;41.594;23.810;2022-11-15T09:27:21;95677.94;;;9.95;67.11
55466;BME280;41329;41.594;23.810;2022-11-15T09:29:46;95676.69;;;10.08;65.06
55466;BME280;41329;41.594;23.810;2022-11-15T09:32:11;95672.69;;;10.21;64.52
55466;BME280;41329;41.594;23.810;2022-11-15T09:34:37;95673.88;;;10.39;66.66
55466;BME280;41329;41.594;23.810;2022-11-15T09:37:02;95661.19;;;10.57;64.53
55466;BME280;41329;41.594;23.810;2022-11-15T09:39:27;95655.53;;;10.69;63.63
55466;BME280;41329;41.594;23.810;2022-11-15T09:49:15;95654.34;;;11.53;62.58
55466;BME280;41329;41.594;23.810;2022-11-15T09:51:45;95641.59;;;11.48;61.91
55466;BME280;41329;41.594;23.810;2022-11-15T09:57:01;95635.59;;;11.65;60.42
55466;BME280;41329;41.594;23.810;2022-11-15T10:04:43;95628.81;;;11.63;59.39
55466;BME280;41329;41.594;23.810;2022-11-15T10:09:51;95623.56;;;11.80;60.34
55466;BME280;41329;41.594;23.810;2022-11-15T10:12:18;95618.56;;;11.89;61.96
55466;BME280;41329;41.594;23.810;2022-11-15T10:14:44;95612.53;;;12.10;60.34
55466;BME280;41329;41.594;23.810;2022-11-15T10:24:48;95589.00;;;12.60;60.20
55466;BME280;41329;41.594;23.810;2022-11-15T10:27:14;95592.03;;;12.48;58.44
55466;BME280;41329;41.594;23.810;2022-11-15T10:29:46;95578.38;;;12.35;59.97
55466;BME280;41329;41.594;23.810;2022-11-15T10:32:11;95575.16;;;12.63;60.55
55466;BME280;41329;41.594;23.810;2022-11-15T10:34:37;95568.06;;;12.66;59.40
55466;BME280;41329;41.594;23.810;2022-11-15T10:37:02;95564.81;;;12.60;58.55
55466;BME280;41329;41.594;23.810;2022-11-15T10:39:28;95553.50;;;12.76;59.14
55466;BME280;41329;41.594;23.810;2022-11-15T10:41:53;95551.09;;;13.07;59.13
55466;BME280;41329;41.594;23.810;2022-11-15T10:49:25;95539.19;;;13.54;55.81
55466;BME280;41329;41.594;23.810;2022-11-15T10:51:57;95533.66;;;13.57;54.19
55466;BME280;41329;41.594;23.810;2022-11-15T10:56:51;95518.78;;;13.86;55.28
55466;BME280;41329;41.594;23.810;2022-11-15T10:59:23;95516.44;;;13.95;53.77
55466;BME280;41329;41.594;23.810;2022-11-15T11:01:49;95497.00;;;14.02;54.55
55466;BME280;41329;41.594;23.810;2022-11-15T11:04:14;95502.16;;;13.97;53.23
55466;BME280;41329;41.594;23.810;2022-11-15T11:06:46;95500.59;;;14.06;52.29
55466;BME280;41329;41.594;23.810;2022-11-15T11:09:21;95489.78;;;13.91;53.23
55466;BME280;41329;41.594;23.810;2022-11-15T11:11:48;95490.50;;;13.77;54.76
55466;BME280;41329;41.594;23.810;2022-11-15T11:14:24;95483.50;;;14.11;52.77
55466;BME280;41329;41.594;23.810;2022-11-15T11:19:19;95482.13;;;14.52;52.71
55466;BME280;41329;41.594;23.810;2022-11-15T11:21:59;95474.59;;;14.49;51.58
55466;BME280;41329;41.594;23.810;2022-11-15T11:24:33;95471.38;;;14.47;51.82
55466;BME280;41329;41.594;23.810;2022-11-15T11:29:50;95462.69;;;14.73;50.28
55466;BME280;41329;41.594;23.810;2022-11-15T11:47:24;95434.88;;;15.54;48.24
55466;BME280;41329;41.594;23.810;2022-11-15T11:49:55;95426.09;;;15.62;47.62
55466;BME280;41329;41.594;23.810;2022-11-15T11:52:31;95431.66;;;15.76;46.93
55466;BME280;41329;41.594;23.810;2022-11-15T11:55:05;95429.28;;;15.61;46.54
55466;BME280;41329;41.594;23.810;2022-11-15T11:57:43;95420.91;;;15.57;46.54
55466;BME280;41329;41.594;23.810;2022-11-15T12:00:14;95424.50;;;15.65;46.71
55466;BME280;41329;41.594;23.810;2022-11-15T12:02:41;95418.81;;;16.00;47.56
55466;BME280;41329;41.594;23.810;2022-11-15T12:07:42;95409.13;;;16.25;45.30
55466;BME280;41329;41.594;23.810;2022-11-15T12:15:10;95390.59;;;16.63;44.69
55466;BME280;41329;41.594;23.810;2022-11-15T12:17:38;95386.50;;;16.81;44.76
55466;BME280;41329;41.594;23.810;2022-11-15T12:20:13;95384.84;;;16.87;44.26
55466;BME280;41329;41.594;23.810;2022-11-15T12:22:59;95377.09;;;17.09;43.19
55466;BME280;41329;41.594;23.810;2022-11-15T12:28:07;95366.59;;;17.20;42.80
55466;BME280;41329;41.594;23.810;2022-11-15T12:31:00;95367.59;;;16.99;43.61
55466;BME280;41329;41.594;23.810;2022-11-15T12:33:35;95363.84;;;17.16;43.04
55466;BME280;41329;41.594;23.810;2022-11-15T12:36:05;95350.44;;;17.41;42.89
55466;BME280;41329;41.594;23.810;2022-11-15T12:41:32;95348.13;;;17.73;42.93
55466;BME280;41329;41.594;23.810;2022-11-15T12:43:58;95351.00;;;18.00;41.84
55466;BME280;41329;41.594;23.810;2022-11-15T12:51:20;95338.25;;;18.26;43.10
55466;BME280;41329;41.594;23.810;2022-11-15T12:53:46;95339.41;;;18.58;41.91
55466;BME280;41329;41.594;23.810;2022-11-15T12:58:50;95330.56;;;18.86;40.63
55466;BME280;41329;41.594;23.810;2022-11-15T13:04:12;95330.66;;;18.56;40.52
55466;BME280;41329;41.594;23.810;2022-11-15T13:06:42;95325.56;;;18.48;41.92
55466;BME280;41329;41.594;23.810;2022-11-15T13:11:52;95317.22;;;18.94;40.84
55466;BME280;41329;41.594;23.810;2022-11-15T13:17:01;95313.41;;;19.73;39.80
55466;BME280;41329;41.594;23.810;2022-11-15T13:19:27;95305.00;;;19.92;38.86
55466;BME280;41329;41.594;23.810;2022-11-15T13:21:52;95313.00;;;20.13;38.19
55466;BME280;41329;41.594;23.810;2022-11-15T13:24:37;95306.56;;;20.52;38.74
55466;BME280;41329;41.594;23.810;2022-11-15T13:27:10;95305.50;;;20.62;37.01
55466;BME280;41329;41.594;23.810;2022-11-15T13:29:35;95295.25;;;20.87;38.56
55466;BME280;41329;41.594;23.810;2022-11-15T13:32:01;95298.28;;;21.28;36.03
55466;BME280;41329;41.594;23.810;2022-11-15T13:34:30;95297.09;;;21.42;35.56
55466;BME280;41329;41.594;23.810;2022-11-15T13:36:58;95290.13;;;21.62;36.27
55466;BME280;41329;41.594;23.810;2022-11-15T13:39:28;95293.22;;;21.96;35.25
55466;BME280;41329;41.594;23.810;2022-11-15T13:41:53;95305.69;;;22.24;35.03
55466;BME280;41329;41.594;23.810;2022-11-15T13:44:23;95305.44;;;22.59;33.67
55466;BME280;41329;41.594;23.810;2022-11-15T13:46:50;95292.81;;;22.51;33.51
55466;BME280;41329;41.594;23.810;2022-11-15T13:49:29;95295.97;;;22.66;33.67
55466;BME280;41329;41.594;23.810;2022-11-15T13:51:54;95293.47;;;22.68;32.51
55466;BME280;41329;41.594;23.810;2022-11-15T13:56:58;95289.31;;;22.60;33.13
55466;BME280;41329;41.594;23.810;2022-11-15T13:59:26;95294.03;;;22.50;32.45
55466;BME280;41329;41.594;23.810;2022-11-15T14:01:53;95290.88;;;22.48;33.15
55466;BME280;41329;41.594;23.810;2022-11-15T14:04:20;95285.34;;;22.57;32.97
55466;BME280;41329;41.594;23.810;2022-11-15T14:06:52;95294.03;;;22.50;32.96
55466;BME280;41329;41.594;23.810;2022-11-15T14:11:59;95294.59;;;23.08;31.62
55466;BME280;41329;41.594;23.810;2022-11-15T14:14:25;95284.13;;;22.83;31.53
55466;BME280;41329;41.594;23.810;2022-11-15T14:16:55;95280.28;;;22.52;31.69
55466;BME280;41329;41.594;23.810;2022-11-15T14:24:30;95284.69;;;21.84;32.94
55466;BME280;41329;41.594;23.810;2022-11-15T14:26:56;95283.25;;;21.63;33.10
55466;BME280;41329;41.594;23.810;2022-11-15T14:31:47;95273.28;;;21.30;33.69
55466;BME280;41329;41.594;23.810;2022-11-15T14:34:12;95275.34;;;21.14;33.21
55466;BME280;41329;41.594;23.810;2022-11-15T14:36:37;95271.91;;;20.90;33.66
55466;BME280;41329;41.594;23.810;2022-11-15T14:39:03;95278.28;;;20.59;33.87
55466;BME280;41329;41.594;23.810;2022-11-15T14:41:33;95277.50;;;20.23;34.28
55466;BME280;41329;41.594;23.810;2022-11-15T14:43:59;95279.28;;;19.94;35.26
55466;BME280;41329;41.594;23.810;2022-11-15T14:46:24;95280.25;;;19.68;35.76
55466;BME280;41329;41.594;23.810;2022-11-15T14:48:50;95282.75;;;19.43;35.37
55466;BME280;41329;41.594;23.810;2022-11-15T14:51:16;95282.75;;;19.20;36.65
55466;BME280;41329;41.594;23.810;2022-11-15T14:53:41;95281.94;;;18.96;37.02
55466;BME280;41329;41.594;23.810;2022-11-15T14:56:07;95281.50;;;18.75;37.58
55466;BME280;41329;41.594;23.810;2022-11-15T14:58:33;95277.47;;;18.53;38.06
55466;BME280;41329;41.594;23.810;2022-11-15T15:00:58;95271.50;;;18.21;38.38